WAT5643 KATL-MWCR
Flight info
| Callsign | WAT5643 |
|---|---|
| Flight time | N/A |
| Altitude | 36000 |
| Route | THRSR118023 WIGVO Q77 TEUFL/N0454F350 Q77 SHRKS DEBRL Q93 EBAYY/N0455F360 Q93 VAULT Q79 MCLAW FUNDI/N0456F370 UM335 ALVEK UM328 UCL/N0454F360 LACET UL465 GCM MWCR |
| Aircraft | A21N/M-SDE3FGHIJ5RWY/LB1 |
Departure
| Time | N/A |
|---|---|
| Airport | Hartsfield Jackson Atlanta International Airport (KATL) |
Arrival
| Time | 2026-05-07 18:02 |
|---|---|
| Airport | Owen Roberts International Airport (MWCR) |
| Time | Latitude | Longitude | Altitude | Speed | Heading |
|---|---|---|---|---|---|
| 2026-05-07 16:59 | 25.70676 | -80.78561 | 36054 ft | 462 kts | 196° |
| 2026-05-07 16:59 | 25.67939 | -80.79224 | 36052 ft | 462 kts | 196° |
| 2026-05-07 17:00 | 25.62215 | -80.80603 | 36048 ft | 462 kts | 196° |
| 2026-05-07 17:00 | 25.56248 | -80.82032 | 36046 ft | 462 kts | 196° |
| 2026-05-07 17:01 | 25.50398 | -80.83431 | 36045 ft | 462 kts | 196° |
| 2026-05-07 17:01 | 25.44598 | -80.84814 | 36046 ft | 462 kts | 196° |
| 2026-05-07 17:02 | 25.38786 | -80.86197 | 36050 ft | 462 kts | 196° |
| 2026-05-07 17:02 | 25.32443 | -80.87703 | 36051 ft | 463 kts | 196° |
| 2026-05-07 17:03 | 25.26143 | -80.89202 | 36051 ft | 463 kts | 196° |
| 2026-05-07 17:03 | 25.19780 | -80.90725 | 36052 ft | 463 kts | 196° |
| 2026-05-07 17:04 | 25.13458 | -80.92230 | 36054 ft | 463 kts | 196° |
| 2026-05-07 17:04 | 25.07599 | -80.93620 | 36056 ft | 464 kts | 196° |
| 2026-05-07 17:05 | 25.01657 | -80.95027 | 36055 ft | 463 kts | 195° |
| 2026-05-07 17:05 | 24.95807 | -80.96409 | 36058 ft | 462 kts | 196° |
| 2026-05-07 17:06 | 24.89806 | -80.97825 | 36065 ft | 462 kts | 195° |
| 2026-05-07 17:06 | 24.83412 | -80.99333 | 36076 ft | 463 kts | 195° |
| 2026-05-07 17:07 | 24.76962 | -81.00663 | 36078 ft | 465 kts | 191° |
| 2026-05-07 17:07 | 24.70768 | -81.01216 | 36082 ft | 468 kts | 185° |
| 2026-05-07 17:08 | 24.64371 | -81.01424 | 36081 ft | 469 kts | 185° |
| 2026-05-07 17:08 | 24.58541 | -81.01617 | 36078 ft | 468 kts | 185° |
| 2026-05-07 17:09 | 24.52778 | -81.01683 | 36073 ft | 469 kts | 182° |
| 2026-05-07 17:09 | 24.46944 | -81.01639 | 36069 ft | 469 kts | 182° |
| 2026-05-07 17:10 | 24.41279 | -81.01589 | 36067 ft | 469 kts | 182° |
| 2026-05-07 17:10 | 24.35493 | -81.01539 | 36066 ft | 470 kts | 182° |
| 2026-05-07 17:11 | 24.29526 | -81.01487 | 36065 ft | 470 kts | 182° |
| 2026-05-07 17:11 | 24.23739 | -81.01436 | 36062 ft | 469 kts | 182° |
| 2026-05-07 17:12 | 24.17964 | -81.01386 | 36065 ft | 469 kts | 182° |
| 2026-05-07 17:12 | 24.12082 | -81.01334 | 36062 ft | 469 kts | 182° |
| 2026-05-07 17:13 | 24.06321 | -81.01279 | 36060 ft | 469 kts | 182° |
| 2026-05-07 17:13 | 24.00517 | -81.01227 | 36055 ft | 469 kts | 182° |
| 2026-05-07 17:14 | 23.94681 | -81.01057 | 36043 ft | 470 kts | 180° |
| 2026-05-07 17:14 | 23.88916 | -81.00796 | 36043 ft | 470 kts | 180° |
| 2026-05-07 17:15 | 23.83059 | -81.00535 | 36048 ft | 470 kts | 180° |
| 2026-05-07 17:15 | 23.77388 | -81.00291 | 36054 ft | 470 kts | 180° |
| 2026-05-07 17:16 | 23.71599 | -81.00044 | 36055 ft | 470 kts | 180° |
| 2026-05-07 17:16 | 23.65798 | -80.99798 | 36053 ft | 469 kts | 180° |
| 2026-05-07 17:17 | 23.60437 | -80.99571 | 36053 ft | 470 kts | 180° |
| 2026-05-07 17:17 | 23.54018 | -80.99298 | 36069 ft | 470 kts | 180° |
| 2026-05-07 17:18 | 23.50658 | -80.99156 | 36465 ft | 466 kts | 180° |
| 2026-05-07 17:18 | 23.47332 | -80.99014 | 36963 ft | 461 kts | 180° |
| 2026-05-07 17:18 | 23.40673 | -80.98731 | 37045 ft | 458 kts | 180° |
| 2026-05-07 17:19 | 23.34446 | -80.98463 | 37048 ft | 458 kts | 180° |
| 2026-05-07 17:19 | 23.28081 | -80.98193 | 37047 ft | 458 kts | 180° |
| 2026-05-07 17:20 | 23.21472 | -80.97920 | 37039 ft | 459 kts | 180° |
| 2026-05-07 17:20 | 23.14860 | -80.97639 | 37028 ft | 459 kts | 180° |
| 2026-05-07 17:21 | 23.08234 | -80.97356 | 37023 ft | 459 kts | 180° |
| 2026-05-07 17:21 | 23.01613 | -80.97771 | 37019 ft | 455 kts | 192° |
| 2026-05-07 17:22 | 22.95336 | -80.99693 | 37020 ft | 452 kts | 202° |
| 2026-05-07 17:22 | 22.89243 | -81.02163 | 37022 ft | 451 kts | 203° |
| 2026-05-07 17:23 | 22.83120 | -81.04647 | 37025 ft | 452 kts | 203° |
| 2026-05-07 17:23 | 22.76946 | -81.07129 | 37025 ft | 452 kts | 203° |
| 2026-05-07 17:24 | 22.70810 | -81.09586 | 37029 ft | 452 kts | 203° |
| 2026-05-07 17:24 | 22.64697 | -81.12029 | 37029 ft | 453 kts | 203° |
| 2026-05-07 17:25 | 22.59204 | -81.14222 | 37032 ft | 452 kts | 203° |
| 2026-05-07 17:25 | 22.54101 | -81.16258 | 37034 ft | 452 kts | 202° |
| 2026-05-07 17:26 | 22.48993 | -81.18293 | 37038 ft | 453 kts | 202° |
| 2026-05-07 17:26 | 22.43352 | -81.20538 | 37039 ft | 453 kts | 202° |
| 2026-05-07 17:27 | 22.37333 | -81.22932 | 37043 ft | 453 kts | 203° |
| 2026-05-07 17:27 | 22.31480 | -81.25259 | 37051 ft | 453 kts | 202° |
| 2026-05-07 17:28 | 22.25518 | -81.27626 | 37048 ft | 453 kts | 202° |
| 2026-05-07 17:28 | 22.19493 | -81.30016 | 37042 ft | 453 kts | 202° |
| 2026-05-07 17:29 | 22.13399 | -81.32432 | 37039 ft | 454 kts | 202° |
| 2026-05-07 17:29 | 22.07356 | -81.34824 | 37040 ft | 454 kts | 202° |
| 2026-05-07 17:30 | 22.01314 | -81.37214 | 37045 ft | 454 kts | 202° |
| 2026-05-07 17:30 | 21.95521 | -81.39503 | 37050 ft | 454 kts | 203° |
| 2026-05-07 17:31 | 21.89432 | -81.41906 | 37047 ft | 454 kts | 202° |
| 2026-05-07 17:31 | 21.83378 | -81.44295 | 37046 ft | 453 kts | 202° |
| 2026-05-07 17:32 | 21.77400 | -81.46648 | 37048 ft | 453 kts | 202° |
| 2026-05-07 17:32 | 21.72236 | -81.48678 | 37046 ft | 453 kts | 202° |
| 2026-05-07 17:33 | 21.67042 | -81.50719 | 37047 ft | 454 kts | 202° |
| 2026-05-07 17:33 | 21.61777 | -81.52675 | 37042 ft | 455 kts | 199° |
| 2026-05-07 17:34 | 21.56313 | -81.54123 | 37043 ft | 457 kts | 193° |
| 2026-05-07 17:34 | 21.50790 | -81.55177 | 37042 ft | 458 kts | 192° |
| 2026-05-07 17:35 | 21.45158 | -81.56228 | 37038 ft | 457 kts | 192° |
| 2026-05-07 17:35 | 21.38827 | -81.57416 | 37033 ft | 457 kts | 192° |
| 2026-05-07 17:36 | 21.32475 | -81.58612 | 37034 ft | 458 kts | 192° |
| 2026-05-07 17:36 | 21.26180 | -81.59798 | 37036 ft | 458 kts | 192° |
| 2026-05-07 17:37 | 21.20990 | -81.60777 | 37017 ft | 458 kts | 192° |
| 2026-05-07 17:37 | 21.17426 | -81.61448 | 36688 ft | 458 kts | 192° |
| 2026-05-07 17:37 | 21.14297 | -81.62036 | 36403 ft | 458 kts | 192° |
| 2026-05-07 17:38 | 21.11094 | -81.62639 | 36113 ft | 458 kts | 192° |
| 2026-05-07 17:38 | 21.07957 | -81.63229 | 35829 ft | 458 kts | 192° |
| 2026-05-07 17:38 | 21.04758 | -81.63831 | 35540 ft | 458 kts | 192° |
| 2026-05-07 17:38 | 21.01568 | -81.64430 | 35251 ft | 458 kts | 192° |
| 2026-05-07 17:39 | 20.98370 | -81.65031 | 34963 ft | 459 kts | 191° |
| 2026-05-07 17:39 | 20.95524 | -81.65565 | 34707 ft | 460 kts | 191° |
| 2026-05-07 17:39 | 20.92767 | -81.66083 | 34461 ft | 461 kts | 191° |
| 2026-05-07 17:39 | 20.89913 | -81.66618 | 34207 ft | 461 kts | 191° |
| 2026-05-07 17:40 | 20.87115 | -81.67142 | 33930 ft | 461 kts | 191° |
| 2026-05-07 17:40 | 20.84268 | -81.67676 | 33267 ft | 464 kts | 191° |
| 2026-05-07 17:40 | 20.81341 | -81.68225 | 32153 ft | 475 kts | 191° |
| 2026-05-07 17:40 | 20.78383 | -81.68782 | 30960 ft | 482 kts | 191° |
| 2026-05-07 17:41 | 20.75076 | -81.69404 | 29449 ft | 485 kts | 190° |
| 2026-05-07 17:41 | 20.71829 | -81.70013 | 28125 ft | 482 kts | 190° |
| 2026-05-07 17:41 | 20.68846 | -81.70571 | 27139 ft | 473 kts | 190° |
| 2026-05-07 17:41 | 20.65820 | -81.71137 | 26314 ft | 468 kts | 189° |
| 2026-05-07 17:42 | 20.62901 | -81.71681 | 25813 ft | 461 kts | 189° |
| 2026-05-07 17:42 | 20.60044 | -81.72213 | 25337 ft | 455 kts | 189° |
| 2026-05-07 17:42 | 20.57191 | -81.72744 | 24865 ft | 449 kts | 189° |
| 2026-05-07 17:42 | 20.54415 | -81.73261 | 24400 ft | 439 kts | 189° |
| 2026-05-07 17:43 | 20.51552 | -81.73795 | 23938 ft | 431 kts | 189° |
| 2026-05-07 17:43 | 20.48612 | -81.74342 | 23456 ft | 427 kts | 188° |
| 2026-05-07 17:43 | 20.45812 | -81.74863 | 22985 ft | 424 kts | 188° |
| 2026-05-07 17:43 | 20.43095 | -81.75370 | 22532 ft | 422 kts | 188° |
| 2026-05-07 17:44 | 20.40351 | -81.75880 | 22079 ft | 419 kts | 188° |
| 2026-05-07 17:44 | 20.37608 | -81.76389 | 21620 ft | 417 kts | 188° |
| 2026-05-07 17:44 | 20.34856 | -81.76901 | 21153 ft | 415 kts | 188° |
| 2026-05-07 17:44 | 20.32138 | -81.77405 | 20686 ft | 413 kts | 187° |
| 2026-05-07 17:45 | 20.29429 | -81.77908 | 20219 ft | 412 kts | 187° |
| 2026-05-07 17:45 | 20.26738 | -81.78407 | 19752 ft | 410 kts | 187° |
| 2026-05-07 17:45 | 20.24009 | -81.78913 | 19273 ft | 408 kts | 187° |
| 2026-05-07 17:45 | 20.21351 | -81.79406 | 18800 ft | 407 kts | 187° |
| 2026-05-07 17:46 | 20.18817 | -81.79877 | 18350 ft | 405 kts | 187° |
| 2026-05-07 17:46 | 20.16241 | -81.80353 | 17889 ft | 404 kts | 187° |
| 2026-05-07 17:46 | 20.13447 | -81.80868 | 17390 ft | 402 kts | 187° |
| 2026-05-07 17:46 | 20.10634 | -81.81387 | 16881 ft | 401 kts | 187° |
| 2026-05-07 17:47 | 20.07861 | -81.81898 | 16387 ft | 399 kts | 187° |
| 2026-05-07 17:47 | 20.05106 | -81.82407 | 15895 ft | 397 kts | 187° |
| 2026-05-07 17:47 | 20.02384 | -81.82889 | 15408 ft | 393 kts | 184° |
| 2026-05-07 17:47 | 19.99889 | -81.82913 | 14961 ft | 387 kts | 172° |
| 2026-05-07 17:48 | 19.97527 | -81.82385 | 14534 ft | 380 kts | 160° |
| 2026-05-07 17:48 | 19.95387 | -81.81531 | 14125 ft | 377 kts | 156° |
| 2026-05-07 17:48 | 19.93139 | -81.80546 | 13682 ft | 372 kts | 155° |
| 2026-05-07 17:48 | 19.90773 | -81.79497 | 13219 ft | 359 kts | 156° |
| 2026-05-07 17:49 | 19.88603 | -81.78542 | 12791 ft | 351 kts | 156° |
| 2026-05-07 17:49 | 19.86359 | -81.77563 | 12347 ft | 349 kts | 156° |
| 2026-05-07 17:49 | 19.84185 | -81.76622 | 11911 ft | 348 kts | 156° |
| 2026-05-07 17:49 | 19.82026 | -81.75692 | 11477 ft | 346 kts | 156° |
| 2026-05-07 17:50 | 19.79893 | -81.74775 | 11056 ft | 345 kts | 156° |
| 2026-05-07 17:50 | 19.77739 | -81.73852 | 10641 ft | 343 kts | 156° |
| 2026-05-07 17:50 | 19.75627 | -81.72948 | 10417 ft | 333 kts | 156° |
| 2026-05-07 17:50 | 19.73637 | -81.72096 | 10299 ft | 320 kts | 156° |
| 2026-05-07 17:51 | 19.71632 | -81.71236 | 10174 ft | 308 kts | 156° |
| 2026-05-07 17:51 | 19.69648 | -81.70386 | 10038 ft | 297 kts | 156° |
| 2026-05-07 17:51 | 19.67880 | -81.69628 | 9831 ft | 290 kts | 156° |
| 2026-05-07 17:51 | 19.66209 | -81.68912 | 9492 ft | 290 kts | 156° |
| 2026-05-07 17:52 | 19.64507 | -81.68183 | 9164 ft | 288 kts | 156° |
| 2026-05-07 17:52 | 19.62752 | -81.67432 | 8830 ft | 287 kts | 156° |
| 2026-05-07 17:52 | 19.61009 | -81.66687 | 8500 ft | 285 kts | 156° |
| 2026-05-07 17:52 | 19.59287 | -81.65951 | 8174 ft | 283 kts | 156° |
| 2026-05-07 17:53 | 19.57605 | -81.65232 | 7856 ft | 281 kts | 156° |
| 2026-05-07 17:53 | 19.55954 | -81.64528 | 7543 ft | 280 kts | 156° |
| 2026-05-07 17:53 | 19.54299 | -81.63821 | 7227 ft | 278 kts | 156° |
| 2026-05-07 17:53 | 19.52594 | -81.63094 | 6904 ft | 276 kts | 156° |
| 2026-05-07 17:54 | 19.50798 | -81.62327 | 6569 ft | 273 kts | 155° |
| 2026-05-07 17:54 | 19.49019 | -81.61567 | 6233 ft | 271 kts | 155° |
| 2026-05-07 17:54 | 19.47258 | -81.60815 | 5899 ft | 269 kts | 155° |
| 2026-05-07 17:54 | 19.45528 | -81.60076 | 5577 ft | 266 kts | 155° |
| 2026-05-07 17:55 | 19.43792 | -81.59335 | 5251 ft | 264 kts | 155° |
| 2026-05-07 17:55 | 19.42214 | -81.58661 | 4948 ft | 262 kts | 155° |
| 2026-05-07 17:55 | 19.40625 | -81.57983 | 4639 ft | 261 kts | 155° |
| 2026-05-07 17:55 | 19.38996 | -81.57290 | 4331 ft | 259 kts | 155° |
| 2026-05-07 17:56 | 19.37429 | -81.56623 | 4081 ft | 254 kts | 155° |
| 2026-05-07 17:56 | 19.35915 | -81.55980 | 4003 ft | 242 kts | 155° |
| 2026-05-07 17:56 | 19.34420 | -81.55434 | 3901 ft | 233 kts | 160° |
| 2026-05-07 17:56 | 19.32897 | -81.55009 | 3610 ft | 234 kts | 162° |
| 2026-05-07 17:57 | 19.31390 | -81.54607 | 3336 ft | 233 kts | 162° |
| 2026-05-07 17:57 | 19.29935 | -81.54224 | 3281 ft | 220 kts | 162° |
| 2026-05-07 17:57 | 19.28538 | -81.53857 | 3258 ft | 209 kts | 162° |
| 2026-05-07 17:57 | 19.27238 | -81.53513 | 3234 ft | 193 kts | 159° |
| 2026-05-07 17:58 | 19.26213 | -81.52811 | 3039 ft | 177 kts | 124° |
| 2026-05-07 17:58 | 19.25846 | -81.51716 | 2883 ft | 165 kts | 97° |
| 2026-05-07 17:58 | 19.25868 | -81.50597 | 2731 ft | 155 kts | 85° |
| 2026-05-07 17:58 | 19.26037 | -81.49519 | 2406 ft | 156 kts | 81° |
| 2026-05-07 17:59 | 19.26269 | -81.48421 | 2170 ft | 150 kts | 79° |
| 2026-05-07 17:59 | 19.26500 | -81.47438 | 1998 ft | 143 kts | 79° |
| 2026-05-07 17:59 | 19.26737 | -81.46457 | 1833 ft | 145 kts | 79° |
| 2026-05-07 17:59 | 19.26973 | -81.45470 | 1648 ft | 145 kts | 79° |
| 2026-05-07 18:00 | 19.27208 | -81.44489 | 1459 ft | 137 kts | 79° |
| 2026-05-07 18:00 | 19.27439 | -81.43525 | 1278 ft | 133 kts | 79° |
| 2026-05-07 18:00 | 19.27661 | -81.42586 | 1117 ft | 132 kts | 79° |
| 2026-05-07 18:00 | 19.27876 | -81.41683 | 940 ft | 132 kts | 78° |
| 2026-05-07 18:01 | 19.28086 | -81.40799 | 780 ft | 132 kts | 78° |
| 2026-05-07 18:01 | 19.28302 | -81.39896 | 608 ft | 132 kts | 78° |
| 2026-05-07 18:01 | 19.28503 | -81.39049 | 453 ft | 131 kts | 78° |
| 2026-05-07 18:01 | 19.28696 | -81.38224 | 294 ft | 132 kts | 78° |
| 2026-05-07 18:02 | 19.29089 | -81.36573 | 23 ft | 128 kts | 77° |
| 2026-05-07 18:02 | 19.29246 | -81.35877 | 12 ft | 88 kts | 75° |
| 2026-05-07 18:02 | 19.29356 | -81.35465 | 12 ft | 46 kts | 73° |
| 2026-05-07 18:03 | 19.29409 | -81.35237 | 12 ft | 33 kts | 77° |
| 2026-05-07 18:03 | 19.29454 | -81.35046 | 12 ft | 23 kts | 76° |
| 2026-05-07 18:03 | 19.29482 | -81.34920 | 12 ft | 12 kts | 77° |
| 2026-05-07 18:03 | 19.29531 | -81.34874 | 12 ft | 11 kts | 347° |
| 2026-05-07 18:04 | 19.29574 | -81.34930 | 12 ft | 12 kts | 274° |
| 2026-05-07 18:04 | 19.29562 | -81.35010 | 12 ft | 12 kts | 255° |
| 2026-05-07 18:04 | 19.29542 | -81.35091 | 12 ft | 13 kts | 255° |
| 2026-05-07 18:04 | 19.29520 | -81.35188 | 12 ft | 13 kts | 256° |
| 2026-05-07 18:05 | 19.29495 | -81.35291 | 12 ft | 14 kts | 256° |
| 2026-05-07 18:05 | 19.29474 | -81.35381 | 12 ft | 14 kts | 256° |
| 2026-05-07 18:05 | 19.29452 | -81.35473 | 12 ft | 15 kts | 255° |
| 2026-05-07 18:05 | 19.29434 | -81.35554 | 12 ft | 11 kts | 266° |
| 2026-05-07 18:06 | 19.29466 | -81.35603 | 12 ft | 10 kts | 304° |
| 2026-05-07 18:06 | 19.29470 | -81.35654 | 12 ft | 3 kts | 264° |
| 2026-05-07 18:06 | 19.29474 | -81.35671 | 12 ft | 2 kts | 315° |
| 2026-05-07 18:06 | 19.29492 | -81.35680 | 12 ft | 3 kts | 338° |
| 2026-05-07 18:07 | 19.29509 | -81.35686 | 12 ft | 2 kts | 344° |
| 2026-05-07 18:07 | 19.29518 | -81.35689 | 12 ft | 0 kts | 346° |
| 2026-05-07 18:07 | 19.29522 | -81.35690 | 12 ft | 1 kts | 346° |
| 2026-05-07 18:07 | 19.29528 | -81.35692 | 12 ft | 0 kts | 346° |
| 2026-05-07 18:08 | 19.29529 | -81.35692 | 12 ft | 0 kts | 346° |
| 2026-05-07 18:24 | 19.29528 | -81.35692 | 12 ft | 0 kts | 346° |
| 2026-05-07 18:26 | 19.29529 | -81.35692 | 12 ft | 0 kts | 346° |
| 2026-05-07 18:26 | 19.29518 | -81.35689 | 12 ft | 2 kts | 346° |
| 2026-05-07 18:26 | 19.29505 | -81.35686 | 12 ft | 2 kts | 346° |
| 2026-05-07 18:26 | 19.29492 | -81.35683 | 12 ft | 2 kts | 346° |
| 2026-05-07 18:27 | 19.29481 | -81.35680 | 12 ft | 0 kts | 346° |
| 2026-05-07 18:27 | 19.29470 | -81.35675 | 12 ft | 2 kts | 309° |
| 2026-05-07 18:27 | 19.29464 | -81.35660 | 12 ft | 2 kts | 264° |
| 2026-05-07 18:27 | 19.29466 | -81.35654 | 12 ft | 0 kts | 252° |
| 2026-05-07 18:28 | 19.29467 | -81.35651 | 12 ft | 0 kts | 256° |